Astra — PB4187 — position and weather

sailwx.info

Track history (hours):
 
Tides and Currents Weather Stations Pressure Air Temp Water Temp Dewpoint Dewpoint Depression Visibility Wind Speed Wind Dir Waves Ship Positions

Astra

Last reported at 2017-Jun-25 07:22 UTC. Time now 2017-Jun-25 12:25 UTC.
Position N 50°49' E 007°02'.

Length 110 m.

Type: Ship. MMSI: 244650752.

Date/timePositionNaut miles runAvg speedWind from/ knotsBaromVisibWave heightAir tempDewpointWater temp
2017-Jun-25 07:22N 50°49' E 007°02'2 4.8
2017-Jun-25 06:56N 50°50' E 006°59'1 0.1
2017-Jun-24 22:31N 50°51' E 006°59'0 1.0
2017-Jun-24 22:29N 50°51' E 006°59'0 0.8
2017-Jun-24 22:00N 50°51' E 006°60'0 0.0
2017-Jun-24 21:30N 50°51' E 006°60'0 0.0
2017-Jun-24 21:00N 50°51' E 006°60'0 0.0
2017-Jun-24 20:29N 50°51' E 006°60'0 0.0
2017-Jun-24 19:59N 50°51' E 006°60'0 0.0
2017-Jun-24 19:30N 50°51' E 006°60'0 0.0
2017-Jun-24 19:00N 50°51' E 006°60'0 0.0
2017-Jun-24 18:30N 50°51' E 006°60'0 0.0
2017-Jun-24 06:19N 50°51' E 006°60'0 0.0
2017-Jun-24 05:54N 50°51' E 006°60'0 0.0
2017-Jun-24 05:26N 50°51' E 006°60'0 0.0
2017-Jun-24 04:54N 50°51' E 006°60'0 0.0
2017-Jun-24 04:28N 50°51' E 006°60'0 0.0
2017-Jun-24 03:51N 50°51' E 006°60'0 0.0
2017-Jun-24 03:20N 50°51' E 006°60'0 0.0
2017-Jun-24 01:31N 50°51' E 006°60'0 0.0
2017-Jun-24 01:11N 50°51' E 006°60'0 0.0
2017-Jun-24 00:56N 50°51' E 006°60'0 0.0
2017-Jun-24 00:18N 50°51' E 006°60'0 0.0
2017-Jun-23 23:56N 50°51' E 006°60'0 0.0
2017-Jun-23 22:30N 50°51' E 006°60'0 0.0
2017-Jun-23 21:48N 50°51' E 006°60'0 0.0
2017-Jun-23 21:27N 50°51' E 006°60'0 0.0
2017-Jun-23 18:47N 50°51' E 006°60'0 0.0
2017-Jun-23 18:27N 50°51' E 006°60'0 0.0
2017-Jun-23 16:53N 50°51' E 006°60'0 0.0
2017-Jun-23 16:24N 50°51' E 006°60'0 0.0
2017-Jun-23 15:59N 50°51' E 006°60'0 0.0
2017-Jun-23 15:18N 50°51' E 006°60'0 0.0
2017-Jun-23 14:48N 50°51' E 006°60'0 0.0
2017-Jun-23 14:29N 50°51' E 006°60'0 0.0
2017-Jun-23 13:53N 50°51' E 006°60'2 0.1
2017-Jun-22 13:07N 50°49' E 007°00'0 3.4
2017-Jun-22 12:59N 50°50' E 006°60'0 0.2
2017-Jun-22 12:30N 50°50' E 006°60'0 0.0
2017-Jun-22 12:00N 50°50' E 006°60'0 0.0
2017-Jun-22 11:30N 50°50' E 006°60'0 0.0
2017-Jun-22 11:00N 50°50' E 006°60'0 0.0
2017-Jun-22 10:30N 50°50' E 006°60'0 0.0
2017-Jun-22 10:00N 50°50' E 006°60'0 0.0
2017-Jun-22 09:30N 50°50' E 006°60'0 0.0
2017-Jun-22 09:00N 50°50' E 006°60'1 0.1
2017-Jun-21 20:02N 50°51' E 006°59'0 3.7
2017-Jun-21 20:00N 50°51' E 006°59'0 0.8
2017-Jun-21 19:28N 50°51' E 006°59'0 0.0
2017-Jun-21 18:59N 50°51' E 006°59'0 0.0
2017-Jun-21 18:30N 50°51' E 006°59'1 0.1
2017-Jun-21 10:21N 50°50' E 006°59'410.2
2017-Jun-21 09:58N 50°47' E 007°03'610.9
2017-Jun-21 09:23N 50°42' E 007°10'100 7.9
2017-Jun-20 20:41N 49°13' E 008°23'1 0.0
2017-Jun-19 13:57N 49°12' E 008°23'10316.9
2017-Jun-19 07:52N 50°43' E 007°09'10 0.4
2017-Jun-18 09:24N 50°50' E 006°59'1 0.5
2017-Jun-18 08:05N 50°51' E 006°59'0 0.0
2017-Jun-18 07:59N 50°51' E 006°59'0 0.0
2017-Jun-18 07:23N 50°51' E 006°59'0 0.0
2017-Jun-18 06:56N 50°51' E 006°59'0 0.0
2017-Jun-18 00:31N 50°51' E 006°59'0 0.0
2017-Jun-18 00:26N 50°51' E 006°59'0 0.7
2017-Jun-17 23:56N 50°51' E 006°60'0 0.0
2017-Jun-17 23:26N 50°51' E 006°60'0 0.0
2017-Jun-17 23:00N 50°51' E 006°60'0 0.0
2017-Jun-17 22:30N 50°51' E 006°60'0 0.0
2017-Jun-17 21:56N 50°51' E 006°60'0 0.0
2017-Jun-17 21:26N 50°51' E 006°60'0 0.0
2017-Jun-17 21:00N 50°51' E 006°60'0 0.0
2017-Jun-17 20:30N 50°51' E 006°60'9 0.6
2017-Jun-17 04:55N 50°43' E 007°08'2 4.8
2017-Jun-17 04:30N 50°45' E 007°06'3 5.1
2017-Jun-17 03:59N 50°47' E 007°03'2 4.6
2017-Jun-17 03:27N 50°49' E 007°02'2 4.4
2017-Jun-17 02:55N 50°50' E 006°59'1 0.1
2017-Jun-16 17:27N 50°51' E 006°59'4 8.0
2017-Jun-16 16:55N 50°47' E 007°02'510.7
2017-Jun-16 16:29N 50°44' E 007°07'88 8.1
2017-Jun-16 05:36N 49°32' E 008°26'210.5
2017-Jun-16 05:26N 49°30' E 008°26'2 5.0
2017-Jun-16 04:57N 49°28' E 008°26'0 0.0
2017-Jun-16 04:30N 49°28' E 008°26'0 0.0
2017-Jun-16 03:59N 49°28' E 008°26'0 0.0
2017-Jun-16 03:30N 49°28' E 008°26'0 0.0
2017-Jun-16 03:00N 49°28' E 008°26'0 0.0
2017-Jun-16 02:29N 49°28' E 008°26'0 0.0
2017-Jun-16 02:00N 49°28' E 008°26'0 0.0
2017-Jun-16 01:27N 49°28' E 008°26'0 0.0
2017-Jun-16 01:00N 49°28' E 008°26'0 0.0
2017-Jun-16 00:30N 49°28' E 008°26'0 0.0
2017-Jun-16 00:00N 49°28' E 008°26'0 0.0
2017-Jun-15 23:30N 49°28' E 008°26'0 0.0
2017-Jun-15 22:59N 49°28' E 008°26'0 0.0
2017-Jun-15 22:30N 49°28' E 008°26'0 0.0
2017-Jun-15 22:00N 49°28' E 008°26'0 0.0
2017-Jun-15 21:30N 49°28' E 008°26'0 0.0
2017-Jun-15 20:50N 49°28' E 008°26'0 0.0
2017-Jun-15 20:30N 49°28' E 008°26'0 0.0
2017-Jun-15 19:58N 49°28' E 008°26'0 0.0
2017-Jun-15 19:12N 49°28' E 008°26'0 0.0
2017-Jun-15 19:00N 49°28' E 008°26'0 0.0
2017-Jun-15 18:29N 49°28' E 008°26'0 0.0
2017-Jun-15 17:56N 49°28' E 008°26'0 0.0
2017-Jun-15 12:51N 49°28' E 008°26'0 0.0
2017-Jun-15 12:23N 49°28' E 008°26'0 0.0
2017-Jun-15 11:14N 49°28' E 008°26'0 0.0
2017-Jun-15 10:55N 49°28' E 008°26'0 0.0
2017-Jun-15 10:28N 49°28' E 008°26'0 0.0
2017-Jun-15 09:56N 49°28' E 008°26'0 0.0
2017-Jun-15 09:26N 49°28' E 008°26'0 0.0
2017-Jun-15 08:57N 49°28' E 008°26'0 0.0
2017-Jun-15 08:28N 49°28' E 008°26'0 0.0
2017-Jun-15 07:56N 49°28' E 008°26'0 0.0
2017-Jun-15 07:29N 49°28' E 008°26'  
Track history (hours):
 
Tides and Currents Weather Stations Pressure Air Temp Water Temp Dewpoint Dewpoint Depression Visibility Wind Speed Wind Dir Waves Ship Positions

Astra

Last reported at 2017-Jun-25 07:22 UTC. Time now 2017-Jun-25 12:25 UTC.
Position N 50°49' E 007°02'.

Length 110 m.

Type: Ship. MMSI: 244650752.

Date/timePositionNaut miles runAvg speedWind from/ knotsBaromVisibWave heightAir tempDewpointWater temp
2017-Jun-25 07:22N 50°49' E 007°02'2 4.8
2017-Jun-25 06:56N 50°50' E 006°59'1 0.1
2017-Jun-24 22:31N 50°51' E 006°59'0 1.0
2017-Jun-24 22:29N 50°51' E 006°59'0 0.8
2017-Jun-24 22:00N 50°51' E 006°60'0 0.0
2017-Jun-24 21:30N 50°51' E 006°60'0 0.0
2017-Jun-24 21:00N 50°51' E 006°60'0 0.0
2017-Jun-24 20:29N 50°51' E 006°60'0 0.0
2017-Jun-24 19:59N 50°51' E 006°60'0 0.0
2017-Jun-24 19:30N 50°51' E 006°60'0 0.0
2017-Jun-24 19:00N 50°51' E 006°60'0 0.0
2017-Jun-24 18:30N 50°51' E 006°60'0 0.0
2017-Jun-24 06:19N 50°51' E 006°60'0 0.0
2017-Jun-24 05:54N 50°51' E 006°60'0 0.0
2017-Jun-24 05:26N 50°51' E 006°60'0 0.0
2017-Jun-24 04:54N 50°51' E 006°60'0 0.0
2017-Jun-24 04:28N 50°51' E 006°60'0 0.0
2017-Jun-24 03:51N 50°51' E 006°60'0 0.0
2017-Jun-24 03:20N 50°51' E 006°60'0 0.0
2017-Jun-24 01:31N 50°51' E 006°60'0 0.0
2017-Jun-24 01:11N 50°51' E 006°60'0 0.0
2017-Jun-24 00:56N 50°51' E 006°60'0 0.0
2017-Jun-24 00:18N 50°51' E 006°60'0 0.0
2017-Jun-23 23:56N 50°51' E 006°60'0 0.0
2017-Jun-23 22:30N 50°51' E 006°60'0 0.0
2017-Jun-23 21:48N 50°51' E 006°60'0 0.0
2017-Jun-23 21:27N 50°51' E 006°60'0 0.0
2017-Jun-23 18:47N 50°51' E 006°60'0 0.0
2017-Jun-23 18:27N 50°51' E 006°60'0 0.0
2017-Jun-23 16:53N 50°51' E 006°60'0 0.0
2017-Jun-23 16:24N 50°51' E 006°60'0 0.0
2017-Jun-23 15:59N 50°51' E 006°60'0 0.0
2017-Jun-23 15:18N 50°51' E 006°60'0 0.0
2017-Jun-23 14:48N 50°51' E 006°60'0 0.0
2017-Jun-23 14:29N 50°51' E 006°60'0 0.0
2017-Jun-23 13:53N 50°51' E 006°60'2 0.1
2017-Jun-22 13:07N 50°49' E 007°00'0 3.4
2017-Jun-22 12:59N 50°50' E 006°60'0 0.2
2017-Jun-22 12:30N 50°50' E 006°60'0 0.0
2017-Jun-22 12:00N 50°50' E 006°60'0 0.0
2017-Jun-22 11:30N 50°50' E 006°60'0 0.0
2017-Jun-22 11:00N 50°50' E 006°60'0 0.0
2017-Jun-22 10:30N 50°50' E 006°60'0 0.0
2017-Jun-22 10:00N 50°50' E 006°60'0 0.0
2017-Jun-22 09:30N 50°50' E 006°60'0 0.0
2017-Jun-22 09:00N 50°50' E 006°60'1 0.1
2017-Jun-21 20:02N 50°51' E 006°59'0 3.7
2017-Jun-21 20:00N 50°51' E 006°59'0 0.8
2017-Jun-21 19:28N 50°51' E 006°59'0 0.0
2017-Jun-21 18:59N 50°51' E 006°59'0 0.0
2017-Jun-21 18:30N 50°51' E 006°59'1 0.1
2017-Jun-21 10:21N 50°50' E 006°59'410.2
2017-Jun-21 09:58N 50°47' E 007°03'610.9
2017-Jun-21 09:23N 50°42' E 007°10'100 7.9
2017-Jun-20 20:41N 49°13' E 008°23'1 0.0
2017-Jun-19 13:57N 49°12' E 008°23'10316.9
2017-Jun-19 07:52N 50°43' E 007°09'10 0.4
2017-Jun-18 09:24N 50°50' E 006°59'1 0.5
2017-Jun-18 08:05N 50°51' E 006°59'0 0.0
2017-Jun-18 07:59N 50°51' E 006°59'0 0.0
2017-Jun-18 07:23N 50°51' E 006°59'0 0.0
2017-Jun-18 06:56N 50°51' E 006°59'0 0.0
2017-Jun-18 00:31N 50°51' E 006°59'0 0.0
2017-Jun-18 00:26N 50°51' E 006°59'0 0.7
2017-Jun-17 23:56N 50°51' E 006°60'0 0.0
2017-Jun-17 23:26N 50°51' E 006°60'0 0.0
2017-Jun-17 23:00N 50°51' E 006°60'0 0.0
2017-Jun-17 22:30N 50°51' E 006°60'0 0.0
2017-Jun-17 21:56N 50°51' E 006°60'0 0.0
2017-Jun-17 21:26N 50°51' E 006°60'0 0.0
2017-Jun-17 21:00N 50°51' E 006°60'0 0.0
2017-Jun-17 20:30N 50°51' E 006°60'9 0.6
2017-Jun-17 04:55N 50°43' E 007°08'2 4.8
2017-Jun-17 04:30N 50°45' E 007°06'3 5.1
2017-Jun-17 03:59N 50°47' E 007°03'2 4.6
2017-Jun-17 03:27N 50°49' E 007°02'2 4.4
2017-Jun-17 02:55N 50°50' E 006°59'1 0.1
2017-Jun-16 17:27N 50°51' E 006°59'4 8.0
2017-Jun-16 16:55N 50°47' E 007°02'510.7
2017-Jun-16 16:29N 50°44' E 007°07'88 8.1
2017-Jun-16 05:36N 49°32' E 008°26'210.5
2017-Jun-16 05:26N 49°30' E 008°26'2 5.0
2017-Jun-16 04:57N 49°28' E 008°26'0 0.0
2017-Jun-16 04:30N 49°28' E 008°26'0 0.0
2017-Jun-16 03:59N 49°28' E 008°26'0 0.0
2017-Jun-16 03:30N 49°28' E 008°26'0 0.0
2017-Jun-16 03:00N 49°28' E 008°26'0 0.0
2017-Jun-16 02:29N 49°28' E 008°26'0 0.0
2017-Jun-16 02:00N 49°28' E 008°26'0 0.0
2017-Jun-16 01:27N 49°28' E 008°26'0 0.0
2017-Jun-16 01:00N 49°28' E 008°26'0 0.0
2017-Jun-16 00:30N 49°28' E 008°26'0 0.0
2017-Jun-16 00:00N 49°28' E 008°26'0 0.0
2017-Jun-15 23:30N 49°28' E 008°26'0 0.0
2017-Jun-15 22:59N 49°28' E 008°26'0 0.0
2017-Jun-15 22:30N 49°28' E 008°26'0 0.0
2017-Jun-15 22:00N 49°28' E 008°26'0 0.0
2017-Jun-15 21:30N 49°28' E 008°26'0 0.0
2017-Jun-15 20:50N 49°28' E 008°26'0 0.0
2017-Jun-15 20:30N 49°28' E 008°26'0 0.0
2017-Jun-15 19:58N 49°28' E 008°26'0 0.0
2017-Jun-15 19:12N 49°28' E 008°26'0 0.0
2017-Jun-15 19:00N 49°28' E 008°26'0 0.0
2017-Jun-15 18:29N 49°28' E 008°26'0 0.0
2017-Jun-15 17:56N 49°28' E 008°26'0 0.0
2017-Jun-15 12:51N 49°28' E 008°26'0 0.0
2017-Jun-15 12:23N 49°28' E 008°26'0 0.0
2017-Jun-15 11:14N 49°28' E 008°26'0 0.0
2017-Jun-15 10:55N 49°28' E 008°26'0 0.0
2017-Jun-15 10:28N 49°28' E 008°26'0 0.0
2017-Jun-15 09:56N 49°28' E 008°26'0 0.0
2017-Jun-15 09:26N 49°28' E 008°26'0 0.0
2017-Jun-15 08:57N 49°28' E 008°26'0 0.0
2017-Jun-15 08:28N 49°28' E 008°26'0 0.0
2017-Jun-15 07:56N 49°28' E 008°26'0 0.0
2017-Jun-15 07:29N 49°28' E 008°26'  

Dump ship's entire track history